sensor_id;sensor_type;location;lat;lon;timestamp;P1;P2;P0
82821;PMS5003;72574;46.842;-71.246;2024-01-11T00:01:44;38;32.05;18.26
82821;PMS5003;72574;46.842;-71.246;2024-01-11T00:04:07;32.15;27.1;16.95
82821;PMS5003;72574;46.842;-71.246;2024-01-11T00:06:32;46.35;36.7;20.3
82821;PMS5003;72574;46.842;-71.246;2024-01-11T00:08:55;37.9;30.43;20.62
82821;PMS5003;72574;46.842;-71.246;2024-01-11T00:11:23;32.33;29.19;17.71
82821;PMS5003;72574;46.842;-71.246;2024-01-11T00:13:48;37.25;31.2;20.7
82821;PMS5003;72574;46.842;-71.246;2024-01-11T00:16:15;41.67;35.67;21.67
82821;PMS5003;72574;46.842;-71.246;2024-01-11T00:18:38;33.05;30.05;20.24
82821;PMS5003;72574;46.842;-71.246;2024-01-11T00:21:04;33.9;28.86;18.38
82821;PMS5003;72574;46.842;-71.246;2024-01-11T00:23:30;45.4;35.3;21.7
82821;PMS5003;72574;46.842;-71.246;2024-01-11T00:25:55;36.62;30.33;19.48
82821;PMS5003;72574;46.842;-71.246;2024-01-11T00:28:22;38.78;31.56;19.89
82821;PMS5003;72574;46.842;-71.246;2024-01-11T00:30:45;33.24;29.62;18.43
82821;PMS5003;72574;46.842;-71.246;2024-01-11T00:33:11;43.1;35.4;22.55
82821;PMS5003;72574;46.842;-71.246;2024-01-11T00:35:37;39.62;36.29;21.05
82821;PMS5003;72574;46.842;-71.246;2024-01-11T00:38:03;49.52;39.57;24.71
82821;PMS5003;72574;46.842;-71.246;2024-01-11T00:40:29;38.33;33.29;19.9
82821;PMS5003;72574;46.842;-71.246;2024-01-11T00:42:52;37.43;35.24;21.95
82821;PMS5003;72574;46.842;-71.246;2024-01-11T00:45:18;46.32;35.68;20.32
82821;PMS5003;72574;46.842;-71.246;2024-01-11T00:47:43;45.58;35.95;20.16
82821;PMS5003;72574;46.842;-71.246;2024-01-11T00:50:09;36.5;33.36;21.14
82821;PMS5003;72574;46.842;-71.246;2024-01-11T00:52:35;55.74;43.47;25.32
82821;PMS5003;72574;46.842;-71.246;2024-01-11T00:55:01;47.05;38.65;21.8
82821;PMS5003;72574;46.842;-71.246;2024-01-11T00:57:27;51.57;41.14;25.48
82821;PMS5003;72574;46.842;-71.246;2024-01-11T00:59:53;51;42.15;26.45
82821;PMS5003;72574;46.842;-71.246;2024-01-11T01:02:17;43.62;39.71;24.38
82821;PMS5003;72574;46.842;-71.246;2024-01-11T01:04:42;44.57;39.67;23.9
82821;PMS5003;72574;46.842;-71.246;2024-01-11T01:07:08;43.86;40.45;25.09
82821;PMS5003;72574;46.842;-71.246;2024-01-11T01:09:33;52.75;39.25;25.45
82821;PMS5003;72574;46.842;-71.246;2024-01-11T01:12:00;54.05;40.65;24.75
82821;PMS5003;72574;46.842;-71.246;2024-01-11T01:14:25;60.95;44.9;25.76
82821;PMS5003;72574;46.842;-71.246;2024-01-11T01:16:49;48.62;42.29;24.9
82821;PMS5003;72574;46.842;-71.246;2024-01-11T01:19:15;60.68;44.26;27.11
82821;PMS5003;72574;46.842;-71.246;2024-01-11T01:21:41;52.86;44.33;26.48
82821;PMS5003;72574;46.842;-71.246;2024-01-11T01:24:06;62.55;47.05;27.14
82821;PMS5003;72574;46.842;-71.246;2024-01-11T01:26:32;43.71;39.62;25.95
82821;PMS5003;72574;46.842;-71.246;2024-01-11T01:28:58;44.67;39.43;20.19
82821;PMS5003;72574;46.842;-71.246;2024-01-11T01:31:24;47.3;39;25.2
82821;PMS5003;72574;46.842;-71.246;2024-01-11T01:33:48;60.95;42.95;27.62
82821;PMS5003;72574;46.842;-71.246;2024-01-11T01:36:13;54.7;41.8;25.5
82821;PMS5003;72574;46.842;-71.246;2024-01-11T01:38:38;60.19;44.19;27.71
82821;PMS5003;72574;46.842;-71.246;2024-01-11T01:41:04;52.09;44.77;26.82
82821;PMS5003;72574;46.842;-71.246;2024-01-11T01:43:30;58.65;45.9;28.25
82821;PMS5003;72574;46.842;-71.246;2024-01-11T01:45:56;62.75;46.35;27.8
82821;PMS5003;72574;46.842;-71.246;2024-01-11T01:48:20;57.55;44.55;27.4
82821;PMS5003;72574;46.842;-71.246;2024-01-11T01:50:47;61.53;46.95;30.47
82821;PMS5003;72574;46.842;-71.246;2024-01-11T01:53:12;59.55;47.85;28.45
82821;PMS5003;72574;46.842;-71.246;2024-01-11T01:55:38;51.8;43.1;27.9
82821;PMS5003;72574;46.842;-71.246;2024-01-11T01:58:02;53.33;44.38;27.9
82821;PMS5003;72574;46.842;-71.246;2024-01-11T02:00:30;48.57;41.9;28.24
82821;PMS5003;72574;46.842;-71.246;2024-01-11T02:02:53;58.55;42.8;26.4
82821;PMS5003;72574;46.842;-71.246;2024-01-11T02:05:19;48.35;42.85;27.25
82821;PMS5003;72574;46.842;-71.246;2024-01-11T02:07:46;58.62;44.48;28.1
82821;PMS5003;72574;46.842;-71.246;2024-01-11T02:10:10;49.38;43.86;27.1
82821;PMS5003;72574;46.842;-71.246;2024-01-11T02:12:37;52.86;42.19;26.62
82821;PMS5003;72574;46.842;-71.246;2024-01-11T02:15:01;61.43;44.62;27.48
82821;PMS5003;72574;46.842;-71.246;2024-01-11T02:17:26;55.1;42.55;27.25
82821;PMS5003;72574;46.842;-71.246;2024-01-11T02:19:54;52.05;42.48;27.81
82821;PMS5003;72574;46.842;-71.246;2024-01-11T02:22:20;54.62;42.33;25.24
82821;PMS5003;72574;46.842;-71.246;2024-01-11T02:24:45;59.25;47.5;28.05
82821;PMS5003;72574;46.842;-71.246;2024-01-11T02:27:08;58.8;45.65;29
82821;PMS5003;72574;46.842;-71.246;2024-01-11T02:29:33;58.6;46.35;28.1
82821;PMS5003;72574;46.842;-71.246;2024-01-11T02:32:03;62.7;43.9;28.5
82821;PMS5003;72574;46.842;-71.246;2024-01-11T02:34:27;69.7;51.75;30.3
82821;PMS5003;72574;46.842;-71.246;2024-01-11T02:36:53;55.05;45;27.52
82821;PMS5003;72574;46.842;-71.246;2024-01-11T02:39:20;64;46.5;28.7
82821;PMS5003;72574;46.842;-71.246;2024-01-11T02:41:44;56.16;46.05;28.74
82821;PMS5003;72574;46.842;-71.246;2024-01-11T02:44:09;65.67;51.05;29.57
82821;PMS5003;72574;46.842;-71.246;2024-01-11T02:46:32;53.37;44.32;28.32
82821;PMS5003;72574;46.842;-71.246;2024-01-11T02:49:00;65.2;46.3;28.6
82821;PMS5003;72574;46.842;-71.246;2024-01-11T02:51:24;63.45;46.9;28.6
82821;PMS5003;72574;46.842;-71.246;2024-01-11T02:53:51;54.1;45.38;27.81
82821;PMS5003;72574;46.842;-71.246;2024-01-11T02:56:15;61.95;45.71;28.67
82821;PMS5003;72574;46.842;-71.246;2024-01-11T02:58:40;56.95;43.5;27.8
82821;PMS5003;72574;46.842;-71.246;2024-01-11T03:01:07;50.86;40.24;25
82821;PMS5003;72574;46.842;-71.246;2024-01-11T03:03:31;35.37;28.32;16.84
82821;PMS5003;72574;46.842;-71.246;2024-01-11T03:05:57;20.09;19.23;13
82821;PMS5003;72574;46.842;-71.246;2024-01-11T03:08:21;31.39;21.39;11.94
82821;PMS5003;72574;46.842;-71.246;2024-01-11T03:10:48;19.24;17.76;10
82821;PMS5003;72574;46.842;-71.246;2024-01-11T03:13:14;16.05;14.62;7.57
82821;PMS5003;72574;46.842;-71.246;2024-01-11T03:15:40;10.19;10.19;6.52
82821;PMS5003;72574;46.842;-71.246;2024-01-11T03:18:03;11.29;8.67;4.48
82821;PMS5003;72574;46.842;-71.246;2024-01-11T03:20:37;14.32;12.91;8.18
82821;PMS5003;72574;46.842;-71.246;2024-01-11T03:23:02;8.59;7.91;5.41
82821;PMS5003;72574;46.842;-71.246;2024-01-11T03:25:29;8.19;8.19;5.9
82821;PMS5003;72574;46.842;-71.246;2024-01-11T03:27:51;6.76;6.76;4.86
82821;PMS5003;72574;46.842;-71.246;2024-01-11T03:30:17;7.57;7.48;5.24
82821;PMS5003;72574;46.842;-71.246;2024-01-11T03:32:44;6.71;6.43;3.67
82821;PMS5003;72574;46.842;-71.246;2024-01-11T03:35:07;8.05;7.29;4.33
82821;PMS5003;72574;46.842;-71.246;2024-01-11T03:37:34;8.64;8.64;6.09
82821;PMS5003;72574;46.842;-71.246;2024-01-11T03:40:01;8.24;6.9;5
82821;PMS5003;72574;46.842;-71.246;2024-01-11T03:42:25;8.48;8.48;5.19
82821;PMS5003;72574;46.842;-71.246;2024-01-11T03:44:50;6.33;6.33;4.62
82821;PMS5003;72574;46.842;-71.246;2024-01-11T03:47:16;6.76;6.76;4.57
82821;PMS5003;72574;46.842;-71.246;2024-01-11T03:49:40;7.48;7;5.1
82821;PMS5003;72574;46.842;-71.246;2024-01-11T03:52:06;8.86;8.33;4.05
82821;PMS5003;72574;46.842;-71.246;2024-01-11T03:54:32;6.77;6.59;5
82821;PMS5003;72574;46.842;-71.246;2024-01-11T03:56:58;6.62;6.48;4.9
82821;PMS5003;72574;46.842;-71.246;2024-01-11T03:59:24;7.57;7.1;5.14
82821;PMS5003;72574;46.842;-71.246;2024-01-11T04:01:47;7.14;7.14;4.9
82821;PMS5003;72574;46.842;-71.246;2024-01-11T04:04:13;8;7.95;5.24
82821;PMS5003;72574;46.842;-71.246;2024-01-11T04:06:39;7.14;6.67;3
82821;PMS5003;72574;46.842;-71.246;2024-01-11T04:09:05;7.05;7.05;3.86
82821;PMS5003;72574;46.842;-71.246;2024-01-11T04:11:32;8.41;8.41;4.27
82821;PMS5003;72574;46.842;-71.246;2024-01-11T04:13:57;7.19;6.95;4.81
82821;PMS5003;72574;46.842;-71.246;2024-01-11T04:16:20;7;5.67;3
82821;PMS5003;72574;46.842;-71.246;2024-01-11T04:18:47;6.76;6;3
82821;PMS5003;72574;46.842;-71.246;2024-01-11T04:21:21;4.29;4.29;3
82821;PMS5003;72574;46.842;-71.246;2024-01-11T04:23:38;4.24;3.57;1.9
82821;PMS5003;72574;46.842;-71.246;2024-01-11T04:26:04;3.95;3.19;3
82821;PMS5003;72574;46.842;-71.246;2024-01-11T04:28:30;5.91;5.91;3.18
82821;PMS5003;72574;46.842;-71.246;2024-01-11T04:30:53;5.76;5.19;2.9
82821;PMS5003;72574;46.842;-71.246;2024-01-11T04:33:21;5.52;5.52;3.71
82821;PMS5003;72574;46.842;-71.246;2024-01-11T04:35:44;6.05;6.05;3
82821;PMS5003;72574;46.842;-71.246;2024-01-11T04:38:11;3.76;3.76;2.1
82821;PMS5003;72574;46.842;-71.246;2024-01-11T04:40:37;6.86;6.52;3.05
82821;PMS5003;72574;46.842;-71.246;2024-01-11T04:42:59;6.48;6.38;2.81
82821;PMS5003;72574;46.842;-71.246;2024-01-11T04:45:28;4.18;4.18;2
82821;PMS5003;72574;46.842;-71.246;2024-01-11T04:47:54;5.57;5.57;3.76
82821;PMS5003;72574;46.842;-71.246;2024-01-11T04:50:19;5.38;5.38;2.76
82821;PMS5003;72574;46.842;-71.246;2024-01-11T04:52:42;5;5;3.29
82821;PMS5003;72574;46.842;-71.246;2024-01-11T04:55:08;5.52;5.43;2.1
82821;PMS5003;72574;46.842;-71.246;2024-01-11T04:57:33;6.48;5.9;3
82821;PMS5003;72574;46.842;-71.246;2024-01-11T04:59:59;3.86;3.86;2.1
82821;PMS5003;72574;46.842;-71.246;2024-01-11T05:02:26;8.05;6.55;3.91
82821;PMS5003;72574;46.842;-71.246;2024-01-11T05:04:52;3.86;3.86;2.38
82821;PMS5003;72574;46.842;-71.246;2024-01-11T05:07:17;4.38;4.38;2.81
82821;PMS5003;72574;46.842;-71.246;2024-01-11T05:09:43;5.95;5.1;3.05
82821;PMS5003;72574;46.842;-71.246;2024-01-11T05:12:06;6.95;5.76;3.19
82821;PMS5003;72574;46.842;-71.246;2024-01-11T05:14:32;5.52;5.52;3
82821;PMS5003;72574;46.842;-71.246;2024-01-11T05:16:57;5.76;5.76;3.05
82821;PMS5003;72574;46.842;-71.246;2024-01-11T05:19:23;7.86;7.27;2.55
82821;PMS5003;72574;46.842;-71.246;2024-01-11T05:21:49;6.67;6.38;3.05
82821;PMS5003;72574;46.842;-71.246;2024-01-11T05:24:14;6.48;6.05;3.24
82821;PMS5003;72574;46.842;-71.246;2024-01-11T05:26:40;6.67;6.29;4.81
82821;PMS5003;72574;46.842;-71.246;2024-01-11T05:29:04;9.76;9.1;4.81
82821;PMS5003;72574;46.842;-71.246;2024-01-11T05:31:31;6.05;5;3.38
82821;PMS5003;72574;46.842;-71.246;2024-01-11T05:33:56;8.71;8.71;5
82821;PMS5003;72574;46.842;-71.246;2024-01-11T05:36:22;8.32;8.32;5
82821;PMS5003;72574;46.842;-71.246;2024-01-11T05:38:48;10.38;9.05;5.19
82821;PMS5003;72574;46.842;-71.246;2024-01-11T05:41:12;6.67;6.67;4.95
82821;PMS5003;72574;46.842;-71.246;2024-01-11T05:43:39;6.67;6.67;5
82821;PMS5003;72574;46.842;-71.246;2024-01-11T05:46:05;6.81;6.81;3.86
82821;PMS5003;72574;46.842;-71.246;2024-01-11T05:48:29;9.24;6.52;4.43
82821;PMS5003;72574;46.842;-71.246;2024-01-11T05:50:54;8.95;7.9;4.05
82821;PMS5003;72574;46.842;-71.246;2024-01-11T05:53:21;8.68;7.05;4.73
82821;PMS5003;72574;46.842;-71.246;2024-01-11T05:55:46;8.52;8.52;6.38
82821;PMS5003;72574;46.842;-71.246;2024-01-11T05:58:11;7.9;7.9;4.9
82821;PMS5003;72574;46.842;-71.246;2024-01-11T06:00:37;6.95;6.95;5
82821;PMS5003;72574;46.842;-71.246;2024-01-11T06:03:02;10.95;7.86;4.95
82821;PMS5003;72574;46.842;-71.246;2024-01-11T06:05:27;10.62;10.29;7.19
82821;PMS5003;72574;46.842;-71.246;2024-01-11T06:07:53;10.14;7.67;5.19
82821;PMS5003;72574;46.842;-71.246;2024-01-11T06:10:19;7.18;7.18;3.95
82821;PMS5003;72574;46.842;-71.246;2024-01-11T06:12:44;12.14;9.05;5.67
82821;PMS5003;72574;46.842;-71.246;2024-01-11T06:15:11;7.57;7.57;3.67
82821;PMS5003;72574;46.842;-71.246;2024-01-11T06:17:33;7.48;7.19;3.48
82821;PMS5003;72574;46.842;-71.246;2024-01-11T06:19:59;10.05;7.9;4.81
82821;PMS5003;72574;46.842;-71.246;2024-01-11T06:22:26;8.43;7.86;6
82821;PMS5003;72574;46.842;-71.246;2024-01-11T06:24:51;9.9;9.24;5.52
82821;PMS5003;72574;46.842;-71.246;2024-01-11T06:27:18;11.18;9.5;5.23
82821;PMS5003;72574;46.842;-71.246;2024-01-11T06:29:44;11.33;10.14;6.67
82821;PMS5003;72574;46.842;-71.246;2024-01-11T06:40:20;8.73;8.73;5.95
82821;PMS5003;72574;46.842;-71.246;2024-01-11T06:42:46;7.68;6.23;4.45
82821;PMS5003;72574;46.842;-71.246;2024-01-11T06:45:12;7.1;6.71;4.67
82821;PMS5003;72574;46.842;-71.246;2024-01-11T06:47:38;7.14;5.9;4.19
82821;PMS5003;72574;46.842;-71.246;2024-01-11T06:50:04;6.38;6;5
82821;PMS5003;72574;46.842;-71.246;2024-01-11T06:52:29;9;8.33;5.52
82821;PMS5003;72574;46.842;-71.246;2024-01-11T06:54:55;5.71;5.48;3.62
82821;PMS5003;72574;46.842;-71.246;2024-01-11T06:57:19;5.48;5.48;3.24
82821;PMS5003;72574;46.842;-71.246;2024-01-11T06:59:46;4.95;4.95;3.23
82821;PMS5003;72574;46.842;-71.246;2024-01-11T07:02:09;5.76;5.76;3.24
82821;PMS5003;72574;46.842;-71.246;2024-01-11T07:04:36;4.19;4.19;2.81
82821;PMS5003;72574;46.842;-71.246;2024-01-11T07:07:02;6.05;5.33;3.19
82821;PMS5003;72574;46.842;-71.246;2024-01-11T07:09:26;5.57;5.57;3
82821;PMS5003;72574;46.842;-71.246;2024-01-11T07:11:53;6.81;5.95;3.24
82821;PMS5003;72574;46.842;-71.246;2024-01-11T07:14:17;6.05;4.81;3.14
82821;PMS5003;72574;46.842;-71.246;2024-01-11T07:16:43;4.95;4.95;2.41
82821;PMS5003;72574;46.842;-71.246;2024-01-11T07:19:09;5;4.57;3.1
82821;PMS5003;72574;46.842;-71.246;2024-01-11T07:21:35;6.38;5.19;3.62
82821;PMS5003;72574;46.842;-71.246;2024-01-11T07:24:00;5.48;4.95;3.38
82821;PMS5003;72574;46.842;-71.246;2024-01-11T07:26:26;5;5;2.24
82821;PMS5003;72574;46.842;-71.246;2024-01-11T07:28:51;6.1;6.1;4.76
82821;PMS5003;72574;46.842;-71.246;2024-01-11T07:31:15;7.48;6.62;4.19
82821;PMS5003;72574;46.842;-71.246;2024-01-11T07:33:42;6.5;5.77;3.86
82821;PMS5003;72574;46.842;-71.246;2024-01-11T07:36:08;5.86;5.48;3.57
82821;PMS5003;72574;46.842;-71.246;2024-01-11T07:38:32;7.33;5.24;3.57
82821;PMS5003;72574;46.842;-71.246;2024-01-11T07:40:58;5.76;5.76;3.9
82821;PMS5003;72574;46.842;-71.246;2024-01-11T07:43:24;5.38;5.38;3.38
82821;PMS5003;72574;46.842;-71.246;2024-01-11T07:45:50;4.95;4.95;3.19
82821;PMS5003;72574;46.842;-71.246;2024-01-11T07:48:14;6.71;6;4.1
82821;PMS5003;72574;46.842;-71.246;2024-01-11T07:50:40;7.36;7.27;5
82821;PMS5003;72574;46.842;-71.246;2024-01-11T07:53:06;8.81;7.86;4.81
82821;PMS5003;72574;46.842;-71.246;2024-01-11T07:55:30;5.52;5.24;3.57
82821;PMS5003;72574;46.842;-71.246;2024-01-11T07:57:56;5.52;5.52;3.62
82821;PMS5003;72574;46.842;-71.246;2024-01-11T08:00:22;5.05;5.05;2.67
82821;PMS5003;72574;46.842;-71.246;2024-01-11T08:02:49;8.29;6.29;3.33
82821;PMS5003;72574;46.842;-71.246;2024-01-11T08:05:13;4.57;4.57;2.24
82821;PMS5003;72574;46.842;-71.246;2024-01-11T08:07:38;5.18;5.09;3.14
82821;PMS5003;72574;46.842;-71.246;2024-01-11T08:10:04;7.33;6.29;3.57
82821;PMS5003;72574;46.842;-71.246;2024-01-11T08:12:28;8.81;7.76;4.29
82821;PMS5003;72574;46.842;-71.246;2024-01-11T08:14:56;4.57;3.71;2.52
82821;PMS5003;72574;46.842;-71.246;2024-01-11T08:17:19;7.95;6.71;3.24
82821;PMS5003;72574;46.842;-71.246;2024-01-11T08:19:47;5.67;5;2.86
82821;PMS5003;72574;46.842;-71.246;2024-01-11T08:22:12;5.95;5.95;3.24
82821;PMS5003;72574;46.842;-71.246;2024-01-11T08:24:38;5.77;5.77;4.23
82821;PMS5003;72574;46.842;-71.246;2024-01-11T08:27:03;9.14;7.57;2.67
82821;PMS5003;72574;46.842;-71.246;2024-01-11T08:29:29;5.9;5.19;3.38
82821;PMS5003;72574;46.842;-71.246;2024-01-11T08:31:53;6.95;5.24;2
82821;PMS5003;72574;46.842;-71.246;2024-01-11T08:34:20;3;3;2
82821;PMS5003;72574;46.842;-71.246;2024-01-11T08:39:28;4.95;4.73;2
82821;PMS5003;72574;46.842;-71.246;2024-01-11T08:41:54;3.18;3.18;1.86
82821;PMS5003;72574;46.842;-71.246;2024-01-11T08:44:20;4.14;2.43;1.33
82821;PMS5003;72574;46.842;-71.246;2024-01-11T08:46:45;2;2;1
82821;PMS5003;72574;46.842;-71.246;2024-01-11T08:49:09;2.38;2.38;1.67
82821;PMS5003;72574;46.842;-71.246;2024-01-11T08:51:34;3.43;3.43;1.95
82821;PMS5003;72574;46.842;-71.246;2024-01-11T08:54:00;3.1;1.76;1.1
82821;PMS5003;72574;46.842;-71.246;2024-01-11T08:56:25;1.24;1.24;1
82821;PMS5003;72574;46.842;-71.246;2024-01-11T08:58:57;1.23;1.23;1
82821;PMS5003;72574;46.842;-71.246;2024-01-11T09:21:19;3.27;3.27;1.27
82821;PMS5003;72574;46.842;-71.246;2024-01-11T09:21:27;2.77;1.68;1.27
82821;PMS5003;72574;46.842;-71.246;2024-01-11T09:21:37;2;2;1.27
82821;PMS5003;72574;46.842;-71.246;2024-01-11T09:21:46;4.68;3.68;2.45
82821;PMS5003;72574;46.842;-71.246;2024-01-11T09:21:55;2;2;1.09
82821;PMS5003;72574;46.842;-71.246;2024-01-11T09:22:04;3.45;2.23;1.27
82821;PMS5003;72574;46.842;-71.246;2024-01-11T09:22:13;1.91;1.91;1.64
82821;PMS5003;72574;46.842;-71.246;2024-01-11T09:22:14;3.45;3.45;1.95
82821;PMS5003;72574;46.842;-71.246;2024-01-11T09:23:28;2.73;2;1.95
82821;PMS5003;72574;46.842;-71.246;2024-01-11T09:25:54;1.62;1.62;1
82821;PMS5003;72574;46.842;-71.246;2024-01-11T09:28:20;1.38;1.38;0.76
82821;PMS5003;72574;46.842;-71.246;2024-01-11T09:30:45;2.64;2.64;1.68
82821;PMS5003;72574;46.842;-71.246;2024-01-11T09:33:09;1.95;1;0.81
82821;PMS5003;72574;46.842;-71.246;2024-01-11T09:35:34;1.95;1;0.1
82821;PMS5003;72574;46.842;-71.246;2024-01-11T09:38:00;1;1;0.1
82821;PMS5003;72574;46.842;-71.246;2024-01-11T09:40:27;0;0;0
82821;PMS5003;72574;46.842;-71.246;2024-01-11T09:42:51;1.1;1.1;0.52
82821;PMS5003;72574;46.842;-71.246;2024-01-11T09:45:16;0.62;0.62;0
82821;PMS5003;72574;46.842;-71.246;2024-01-11T09:47:43;1.14;1.14;0.82
82821;PMS5003;72574;46.842;-71.246;2024-01-11T09:50:09;1.76;0.95;0.38
82821;PMS5003;72574;46.842;-71.246;2024-01-11T09:52:33;0.95;0.95;0.95
82821;PMS5003;72574;46.842;-71.246;2024-01-11T09:54:58;1.67;0.52;0.52
82821;PMS5003;72574;46.842;-71.246;2024-01-11T09:57:28;1.71;1.71;0.52
82821;PMS5003;72574;46.842;-71.246;2024-01-11T09:59:49;1.81;1.81;0.62
82821;PMS5003;72574;46.842;-71.246;2024-01-11T10:02:15;0;0;0
82821;PMS5003;72574;46.842;-71.246;2024-01-11T10:04:42;0;0;0
82821;PMS5003;72574;46.842;-71.246;2024-01-11T10:07:06;0.62;0.62;0
82821;PMS5003;72574;46.842;-71.246;2024-01-11T10:09:32;1.9;1.67;1
82821;PMS5003;72574;46.842;-71.246;2024-01-11T10:11:57;0.95;0;0
82821;PMS5003;72574;46.842;-71.246;2024-01-11T10:14:22;0.52;0.52;0
82821;PMS5003;72574;46.842;-71.246;2024-01-11T10:16:48;0;0;0
82821;PMS5003;72574;46.842;-71.246;2024-01-11T10:19:12;15.86;14.9;9.62
82821;PMS5003;72574;46.842;-71.246;2024-01-11T10:21:44;0.95;0.95;0.68
82821;PMS5003;72574;46.842;-71.246;2024-01-11T10:24:10;0;0;0
82821;PMS5003;72574;46.842;-71.246;2024-01-11T10:26:37;0;0;0
82821;PMS5003;72574;46.842;-71.246;2024-01-11T10:29:02;0;0;0
82821;PMS5003;72574;46.842;-71.246;2024-01-11T10:31:27;0;0;0
82821;PMS5003;72574;46.842;-71.246;2024-01-11T10:33:52;0.95;0;0
82821;PMS5003;72574;46.842;-71.246;2024-01-11T10:36:18;0.24;0;0
82821;PMS5003;72574;46.842;-71.246;2024-01-11T10:38:43;0.5;0.5;0
82821;PMS5003;72574;46.842;-71.246;2024-01-11T10:41:08;0;0;0
82821;PMS5003;72574;46.842;-71.246;2024-01-11T10:43:36;0;0;0
82821;PMS5003;72574;46.842;-71.246;2024-01-11T10:46:00;0.67;0.67;0
82821;PMS5003;72574;46.842;-71.246;2024-01-11T10:48:25;0;0;0
82821;PMS5003;72574;46.842;-71.246;2024-01-11T10:50:50;0.76;0.05;0
82821;PMS5003;72574;46.842;-71.246;2024-01-11T10:53:19;0;0;0
82821;PMS5003;72574;46.842;-71.246;2024-01-11T10:55:41;0;0;0
82821;PMS5003;72574;46.842;-71.246;2024-01-11T10:58:08;0.48;0;0
82821;PMS5003;72574;46.842;-71.246;2024-01-11T11:00:31;0.9;0.52;0
82821;PMS5003;72574;46.842;-71.246;2024-01-11T11:02:58;0.05;0.05;0
82821;PMS5003;72574;46.842;-71.246;2024-01-11T11:05:23;1;1;0
82821;PMS5003;72574;46.842;-71.246;2024-01-11T11:07:48;0.05;0;0
82821;PMS5003;72574;46.842;-71.246;2024-01-11T11:10:15;0.52;0.52;0
82821;PMS5003;72574;46.842;-71.246;2024-01-11T11:12:40;0.23;0.23;0.18
82821;PMS5003;72574;46.842;-71.246;2024-01-11T11:15:05;1.1;1;0.1
82821;PMS5003;72574;46.842;-71.246;2024-01-11T11:17:30;0.9;0.9;0
82821;PMS5003;72574;46.842;-71.246;2024-01-11T11:19:55;0.9;0.9;0
82821;PMS5003;72574;46.842;-71.246;2024-01-11T11:22:22;0.62;0.62;0
82821;PMS5003;72574;46.842;-71.246;2024-01-11T11:24:47;1.9;1.9;1
82821;PMS5003;72574;46.842;-71.246;2024-01-11T11:27:13;0;0;0
82821;PMS5003;72574;46.842;-71.246;2024-01-11T11:29:37;0;0;0
82821;PMS5003;72574;46.842;-71.246;2024-01-11T11:32:05;1.19;0.95;0.48
82821;PMS5003;72574;46.842;-71.246;2024-01-11T11:34:45;7.75;7.75;7.75
82821;PMS5003;72574;46.842;-71.246;2024-01-11T11:36:55;8.75;8.75;7.8
82821;PMS5003;72574;46.842;-71.246;2024-01-11T11:39:21;9.25;7.35;7.35
82821;PMS5003;72574;46.842;-71.246;2024-01-11T11:41:46;9.75;9.75;8.95
82821;PMS5003;72574;46.842;-71.246;2024-01-11T11:44:12;8.9;8.9;8.1
82821;PMS5003;72574;46.842;-71.246;2024-01-11T11:46:38;16.86;16.86;16.43
82821;PMS5003;72574;46.842;-71.246;2024-01-11T11:49:02;11.3;11.1;10.95
82821;PMS5003;72574;46.842;-71.246;2024-01-11T11:51:29;27.3;27.1;24.85
82821;PMS5003;72574;46.842;-71.246;2024-01-11T11:53:53;10.35;10.25;9.7
82821;PMS5003;72574;46.842;-71.246;2024-01-11T11:56:20;4.25;4.25;4.25
82821;PMS5003;72574;46.842;-71.246;2024-01-11T11:58:44;3.95;3.55;3.4
82821;PMS5003;72574;46.842;-71.246;2024-01-11T12:01:09;1.52;1.52;1.52
82821;PMS5003;72574;46.842;-71.246;2024-01-11T12:03:37;0;0;0
82821;PMS5003;72574;46.842;-71.246;2024-01-11T12:06:02;0.1;0.1;0
82821;PMS5003;72574;46.842;-71.246;2024-01-11T12:08:27;0;0;0
82821;PMS5003;72574;46.842;-71.246;2024-01-11T12:10:52;0;0;0
82821;PMS5003;72574;46.842;-71.246;2024-01-11T12:13:18;0;0;0
82821;PMS5003;72574;46.842;-71.246;2024-01-11T12:15:43;0;0;0
82821;PMS5003;72574;46.842;-71.246;2024-01-11T12:18:09;0.62;0.1;0
82821;PMS5003;72574;46.842;-71.246;2024-01-11T12:20:33;0.32;0.18;0
82821;PMS5003;72574;46.842;-71.246;2024-01-11T12:23:00;0.1;0.1;0
82821;PMS5003;72574;46.842;-71.246;2024-01-11T12:25:25;0;0;0
82821;PMS5003;72574;46.842;-71.246;2024-01-11T12:27:49;0;0;0
82821;PMS5003;72574;46.842;-71.246;2024-01-11T12:30:16;0;0;0
82821;PMS5003;72574;46.842;-71.246;2024-01-11T12:32:40;0;0;0
82821;PMS5003;72574;46.842;-71.246;2024-01-11T12:35:06;0.52;0;0
82821;PMS5003;72574;46.842;-71.246;2024-01-11T12:37:32;0.82;0;0
82821;PMS5003;72574;46.842;-71.246;2024-01-11T12:39:59;0;0;0
82821;PMS5003;72574;46.842;-71.246;2024-01-11T12:42:22;0;0;0
82821;PMS5003;72574;46.842;-71.246;2024-01-11T12:44:49;0.67;0.67;0.24
82821;PMS5003;72574;46.842;-71.246;2024-01-11T12:47:13;0.05;0.05;0
82821;PMS5003;72574;46.842;-71.246;2024-01-11T12:49:38;0;0;0
82821;PMS5003;72574;46.842;-71.246;2024-01-11T12:52:03;0;0;0
82821;PMS5003;72574;46.842;-71.246;2024-01-11T12:54:32;0;0;0
82821;PMS5003;72574;46.842;-71.246;2024-01-11T12:56:58;0;0;0
82821;PMS5003;72574;46.842;-71.246;2024-01-11T12:59:25;1;0;0
82821;PMS5003;72574;46.842;-71.246;2024-01-11T13:01:47;2;1;0
82821;PMS5003;72574;46.842;-71.246;2024-01-11T13:04:11;0;0;0
82821;PMS5003;72574;46.842;-71.246;2024-01-11T13:06:37;1.81;1;0
82821;PMS5003;72574;46.842;-71.246;2024-01-11T13:09:03;0;0;0
82821;PMS5003;72574;46.842;-71.246;2024-01-11T13:11:29;0.68;0.68;0
82821;PMS5003;72574;46.842;-71.246;2024-01-11T13:13:54;0.48;0.38;0
82821;PMS5003;72574;46.842;-71.246;2024-01-11T13:16:19;0.95;0;0
82821;PMS5003;72574;46.842;-71.246;2024-01-11T13:18:45;0;0;0
82821;PMS5003;72574;46.842;-71.246;2024-01-11T13:21:11;1;0.52;0
82821;PMS5003;72574;46.842;-71.246;2024-01-11T13:23:35;0;0;0
82821;PMS5003;72574;46.842;-71.246;2024-01-11T13:26:02;0;0;0
82821;PMS5003;72574;46.842;-71.246;2024-01-11T13:28:27;0.59;0.59;0
82821;PMS5003;72574;46.842;-71.246;2024-01-11T13:30:53;0.33;0;0
82821;PMS5003;72574;46.842;-71.246;2024-01-11T13:33:19;0;0;0
82821;PMS5003;72574;46.842;-71.246;2024-01-11T13:35:45;0;0;0
82821;PMS5003;72574;46.842;-71.246;2024-01-11T13:38:10;0;0;0
82821;PMS5003;72574;46.842;-71.246;2024-01-11T13:40:36;0;0;0
82821;PMS5003;72574;46.842;-71.246;2024-01-11T13:42:59;1;0;0
82821;PMS5003;72574;46.842;-71.246;2024-01-11T13:45:27;0;0;0
82821;PMS5003;72574;46.842;-71.246;2024-01-11T13:47:53;0.95;0;0
82821;PMS5003;72574;46.842;-71.246;2024-01-11T13:50:16;1;0;0
82821;PMS5003;72574;46.842;-71.246;2024-01-11T13:52:41;0;0;0
82821;PMS5003;72574;46.842;-71.246;2024-01-11T13:55:07;0.62;0.62;0
82821;PMS5003;72574;46.842;-71.246;2024-01-11T13:57:32;0.05;0;0
82821;PMS5003;72574;46.842;-71.246;2024-01-11T13:59:57;0.81;0;0
82821;PMS5003;72574;46.842;-71.246;2024-01-11T14:02:26;1;0;0
82821;PMS5003;72574;46.842;-71.246;2024-01-11T14:04:49;0;0;0
82821;PMS5003;72574;46.842;-71.246;2024-01-11T14:07:14;0.48;0.48;0
82821;PMS5003;72574;46.842;-71.246;2024-01-11T14:09:41;0;0;0
82821;PMS5003;72574;46.842;-71.246;2024-01-11T14:12:08;0;0;0
82821;PMS5003;72574;46.842;-71.246;2024-01-11T14:14:30;1.52;1;0
82821;PMS5003;72574;46.842;-71.246;2024-01-11T14:16:57;0.52;0;0
82821;PMS5003;72574;46.842;-71.246;2024-01-11T14:19:24;0.55;0;0
82821;PMS5003;72574;46.842;-71.246;2024-01-11T14:21:47;0.9;0.81;0
82821;PMS5003;72574;46.842;-71.246;2024-01-11T14:24:14;41.5;34.15;31.05